CheckWX is a tool to help pilots better visualize weather data.  It is not intended as a substitute for an official pre-flight weather briefing.

23:23:38 UTC

KCHK METAR
Chickasha Municipal Airport
Chickasha, Oklahoma, USA
Current

29 mins ago

KCHK 162255Z AUTO 15014G17KT 10SM CLR 15/00 A2998 RMK AO2 T01531002
Observed
Nov-16 @ 22:55 UTC
Wind
  • 150° at 14 KTS
  • Gusting to 17 KTS
Visibility
10 SM
Flight Rules
VFR
Cloud Levels
  • Clear skies
Temperature
15°C / 59°F
Dewpoint
-0°C / 32°F
Humidity
36%
Altimeter
29.98" Hg
Pressure
1015.22 hPa
Previous

49 mins ago

KCHK 162235Z AUTO 16012KT 10SM CLR 16/00 A2999 RMK AO2 T01601002
Observed
Nov-16 @ 22:35 UTC
Wind
  • 160° at 12 KTS
Visibility
10 SM
Flight Rules
VFR
Cloud Levels
  • Clear skies
Temperature
16°C / 61°F
Dewpoint
-0°C / 32°F
Humidity
34%
Altimeter
29.99" Hg
Pressure
1015.62 hPa
Previous

1 hour ago

KCHK 162215Z AUTO 16016KT 10SM CLR 17/00 A2999 RMK AO2 T01661004
Observed
Nov-16 @ 22:15 UTC
Wind
  • 160° at 16 KTS
Visibility
10 SM
Flight Rules
VFR
Cloud Levels
  • Clear skies
Temperature
17°C / 63°F
Dewpoint
-0°C / 32°F
Humidity
32%
Altimeter
29.99" Hg
Pressure
1015.62 hPa